Logo AVAMET
Benvolgut visitant, si us plau, ingressa Recuperar contrasenya

Fontanars poble

Microdades

Dia
Data Direcció
vent
(graus)
Direcció
vent
Velocitat
vent
(km/h)
Ràfega
màx vent
(km/h)
Temperatura
(°C)
Humitat
relativa
(%)
Pressió
(hPa)
Precipitació
acumulada
(mm)
25-09-2017 00:04 289 ONO 0,0 4,8 20,4 67,0 1.019,2 0,0
25-09-2017 00:09 220 SO 1,6 4,8 20,4 68,0 1.019,2 0,0
25-09-2017 00:19 276 O 3,2 9,7 19,8 71,0 1.019,2 0,0
25-09-2017 00:24 288 ONO 4,8 9,7 19,4 72,0 1.019,2 0,0
25-09-2017 00:29 302 ONO 4,8 9,7 19,2 73,0 1.019,1 0,0
25-09-2017 00:35 281 O 3,2 9,7 19,2 73,0 1.019,1 0,0
25-09-2017 00:39 282 ONO 1,6 9,7 19,2 74,0 1.019,1 0,0
25-09-2017 00:44 280 O 4,8 9,7 19,1 75,0 1.019,1 0,0
25-09-2017 00:49 288 ONO 4,8 9,7 18,9 74,0 1.019,2 0,0
25-09-2017 00:54 287 ONO 0,0 9,7 19,0 72,0 1.019,1 0,0
25-09-2017 00:59 278 O 0,0 9,7 18,8 75,0 1.019,1 0,0
25-09-2017 01:04 281 O 0,0 9,7 18,6 76,0 1.019,0 0,0
25-09-2017 01:09 278 O 0,0 9,7 18,4 76,0 1.018,9 0,0
25-09-2017 01:14 280 O 1,6 9,7 18,3 77,0 1.018,9 0,0
25-09-2017 01:19 273 O 1,6 9,7 18,3 77,0 1.018,9 0,0
25-09-2017 01:24 231 SO 0,0 9,7 18,2 76,0 1.018,8 0,0
25-09-2017 01:29 235 SO 0,0 9,7 18,2 76,0 1.018,7 0,0
25-09-2017 01:34 265 O 0,0 9,7 18,2 74,0 1.018,7 0,0
25-09-2017 01:38 288 ONO 1,6 9,7 18,4 69,0 1.018,7 0,0
25-09-2017 01:44 293 ONO 1,6 9,7 19,1 64,0 1.018,6 0,0
25-09-2017 01:48 283 ONO 3,2 9,7 19,2 65,0 1.018,6 0,0
25-09-2017 01:55 242 OSO 1,6 9,7 18,9 69,0 1.018,6 0,0
25-09-2017 02:00 300 ONO 1,6 9,7 18,4 72,0 1.018,6 0,0
25-09-2017 02:04 257 OSO 4,8 9,7 18,2 74,0 1.018,7 0,0
25-09-2017 02:09 280 O 3,2 9,7 17,9 75,0 1.018,7 0,0
25-09-2017 02:14 264 O 4,8 9,7 17,8 76,0 1.018,6 0,0
25-09-2017 02:19 277 O 0,0 9,7 17,7 76,0 1.018,6 0,0
25-09-2017 02:24 260 O 1,6 9,7 17,7 74,0 1.018,5 0,0
25-09-2017 02:30 271 O 1,6 9,7 17,7 74,0 1.018,6 0,0
25-09-2017 02:34 281 O 1,6 9,7 17,6 75,0 1.018,6 0,0
25-09-2017 02:39 260 O 4,8 9,7 17,5 76,0 1.018,5 0,0
25-09-2017 02:44 262 O 0,0 9,7 17,4 76,0 1.018,5 0,0
25-09-2017 02:49 273 O 4,8 9,7 17,4 78,0 1.018,5 0,0
25-09-2017 02:54 255 OSO 0,0 9,7 17,3 79,0 1.018,5 0,0
25-09-2017 02:59 243 OSO 1,6 9,7 17,2 80,0 1.018,5 0,0
25-09-2017 03:05 260 O 0,0 9,7 17,1 81,0 1.018,4 0,0
25-09-2017 03:09 260 O 0,0 9,7 16,9 82,0 1.018,4 0,0
25-09-2017 03:14 257 OSO 0,0 9,7 16,8 84,0 1.018,3 0,0
25-09-2017 03:19 259 O 3,2 9,7 16,6 85,0 1.018,2 0,0
25-09-2017 03:24 240 OSO 1,6 9,7 16,5 85,0 1.018,1 0,0
25-09-2017 03:29 262 O 0,0 9,7 16,5 86,0 1.018,1 0,0
25-09-2017 03:34 233 SO 0,0 9,7 16,5 86,0 1.018,0 0,0
25-09-2017 03:39 248 OSO 3,2 9,7 16,5 86,0 1.018,0 0,0
25-09-2017 03:44 243 OSO 0,0 9,7 16,4 86,0 1.018,0 0,0
25-09-2017 03:49 261 O 4,8 9,7 16,5 85,0 1.017,8 0,0
25-09-2017 03:54 235 SO 1,6 9,7 16,6 84,0 1.017,8 0,0
25-09-2017 03:59 266 O 0,0 9,7 16,5 84,0 1.017,7 0,0
25-09-2017 04:04 245 OSO 4,8 9,7 16,6 84,0 1.017,7 0,0
25-09-2017 04:09 236 SO 0,0 9,7 16,5 84,0 1.017,7 0,0
25-09-2017 04:14 274 O 0,0 9,7 16,4 84,0 1.017,7 0,0
25-09-2017 04:19 243 OSO 0,0 9,7 16,3 86,0 1.017,6 0,0
25-09-2017 04:24 240 OSO 1,6 9,7 16,1 87,0 1.017,5 0,0
25-09-2017 04:29 256 OSO 0,0 9,7 16,1 88,0 1.017,6 0,0
25-09-2017 04:34 288 ONO 4,8 9,7 16,0 88,0 1.017,6 0,0
25-09-2017 04:39 264 O 4,8 9,7 15,8 88,0 1.017,6 0,0
25-09-2017 04:44 269 O 3,2 9,7 15,8 88,0 1.017,6 0,0
25-09-2017 04:49 256 OSO 3,2 9,7 15,9 89,0 1.017,6 0,0
25-09-2017 04:54 248 OSO 1,6 9,7 15,9 89,0 1.017,5 0,0
25-09-2017 04:59 246 OSO 0,0 9,7 15,8 89,0 1.017,4 0,0
25-09-2017 05:04 278 O 3,2 9,7 15,7 90,0 1.017,4 0,0
25-09-2017 05:09 256 OSO 3,2 9,7 15,4 90,0 1.017,4 0,0
25-09-2017 05:14 253 OSO 3,2 9,7 15,3 91,0 1.017,4 0,0
25-09-2017 05:19 236 SO 0,0 9,7 15,3 91,0 1.017,2 0,0
25-09-2017 05:24 239 OSO 0,0 9,7 15,2 91,0 1.017,1 0,0
25-09-2017 05:29 271 O 1,6 9,7 15,2 91,0 1.017,1 0,0
25-09-2017 05:34 263 O 3,2 9,7 15,1 91,0 1.017,1 0,0
25-09-2017 05:39 262 O 1,6 9,7 15,1 91,0 1.017,0 0,0
25-09-2017 05:44 307 NO 1,6 9,7 15,0 91,0 1.017,1 0,0
25-09-2017 05:49 294 ONO 3,2 9,7 14,9 91,0 1.017,1 0,0
25-09-2017 05:54 233 SO 3,2 9,7 15,0 91,0 1.017,1 0,0
25-09-2017 05:59 233 SO 1,6 9,7 15,1 89,0 1.017,0 0,0
25-09-2017 06:04 276 O 6,4 9,7 15,2 88,0 1.017,1 0,0
25-09-2017 06:09 219 SO 3,2 9,7 15,2 89,0 1.017,2 0,0
25-09-2017 06:14 245 OSO 4,8 9,7 15,1 89,0 1.017,3 0,0
25-09-2017 06:19 228 SO 4,8 9,7 14,9 89,0 1.017,3 0,0
25-09-2017 06:24 235 SO 0,0 9,7 14,8 88,0 1.017,3 0,0
25-09-2017 06:29 233 SO 0,0 9,7 14,6 89,0 1.017,3 0,0
25-09-2017 06:34 239 OSO 1,6 9,7 14,5 89,0 1.017,3 0,0
25-09-2017 06:39 236 SO 3,2 9,7 14,4 89,0 1.017,3 0,0
25-09-2017 06:44 232 SO 3,2 9,7 14,4 89,0 1.017,3 0,0
25-09-2017 06:49 263 O 3,2 9,7 14,6 87,0 1.017,4 0,0
25-09-2017 06:54 229 SO 3,2 9,7 14,7 86,0 1.017,3 0,0
25-09-2017 06:59 255 OSO 4,8 9,7 14,8 86,0 1.017,3 0,0
25-09-2017 07:04 269 O 1,6 9,7 14,9 86,0 1.017,4 0,0
25-09-2017 07:09 226 SO 1,6 9,7 14,9 85,0 1.017,3 0,0
25-09-2017 07:14 191 S 1,6 9,7 14,9 85,0 1.017,3 0,0
25-09-2017 07:19 248 OSO 1,6 9,7 14,8 85,0 1.017,3 0,0
25-09-2017 07:24 237 OSO 3,2 9,7 14,7 85,0 1.017,3 0,0
25-09-2017 07:29 242 OSO 4,8 9,7 14,7 84,0 1.017,4 0,0
25-09-2017 07:34 240 OSO 1,6 9,7 14,8 84,0 1.017,4 0,0
25-09-2017 07:39 235 SO 1,6 9,7 14,8 83,0 1.017,5 0,0
25-09-2017 07:44 284 ONO 1,6 9,7 14,7 84,0 1.017,5 0,0
25-09-2017 07:49 233 SO 3,2 9,7 14,6 84,0 1.017,6 0,0
25-09-2017 07:54 245 OSO 1,6 9,7 14,7 83,0 1.017,6 0,0
25-09-2017 07:59 229 SO 3,2 11,3 14,9 81,0 1.017,6 0,0
25-09-2017 08:04 283 ONO 3,2 11,3 15,2 80,0 1.017,6 0,0
25-09-2017 08:09 250 OSO 1,6 11,3 15,3 79,0 1.017,7 0,0
25-09-2017 08:14 263 O 1,6 11,3 15,5 78,0 1.017,6 0,0
25-09-2017 08:19 288 ONO 3,2 11,3 15,7 77,0 1.017,7 0,0
25-09-2017 08:24 274 O 1,6 11,3 15,6 78,0 1.017,7 0,0
25-09-2017 08:29 270 O 3,2 11,3 15,3 79,0 1.017,7 0,0
25-09-2017 08:34 276 O 4,8 11,3 15,3 80,0 1.017,7 0,0
25-09-2017 08:39 267 O 3,2 11,3 15,3 80,0 1.017,7 0,0
25-09-2017 08:44 258 OSO 0,0 11,3 15,3 81,0 1.017,7 0,0
25-09-2017 08:49 284 ONO 0,0 11,3 15,4 80,0 1.017,9 0,0
25-09-2017 08:54 259 O 1,6 11,3 15,7 79,0 1.017,9 0,0
25-09-2017 08:59 236 SO 1,6 11,3 15,9 78,0 1.017,9 0,0
25-09-2017 09:04 280 O 1,6 11,3 16,2 76,0 1.018,0 0,0
25-09-2017 09:09 281 O 1,6 11,3 16,5 75,0 1.018,0 0,0
25-09-2017 09:14 236 SO 1,6 11,3 16,7 73,0 1.018,0 0,0
25-09-2017 09:19 248 OSO 0,0 11,3 17,1 71,0 1.018,0 0,0
25-09-2017 09:24 228 SO 0,0 11,3 17,6 69,0 1.018,0 0,0
25-09-2017 09:29 211 SSO 0,0 11,3 18,3 65,0 1.018,1 0,0
25-09-2017 09:34 236 SO 1,6 11,3 18,8 63,0 1.018,2 0,0
25-09-2017 09:39 214 SO 0,0 11,3 19,4 58,0 1.018,2 0,0
25-09-2017 09:44 255 OSO 1,6 11,3 19,9 56,0 1.018,2 0,0
25-09-2017 09:49 264 O 0,0 11,3 20,5 54,0 1.018,3 0,0
25-09-2017 09:54 287 ONO 1,6 11,3 20,9 52,0 1.018,4 0,0
25-09-2017 09:59 226 SO 9,7 11,3 21,3 51,0 1.018,4 0,0
25-09-2017 10:04 273 O 9,7 11,3 21,7 49,0 1.018,4 0,0
Nota sobre les dades: s'avisa a l'usuari de la provisionalitat i no oficialitat d'aquestes dades
Descarregar PDF
Descarregar CSV
Logo AVAMET blanc
Llicència de Creative CommonsLa web d'AVAMET i els seus continguts estan subjectes a una llicència de
Reconeixement - No Comercial - Compartir igual